createdAt,value
2018-05-12T00:01:51.131Z,10.80
2018-05-12T00:04:57.390Z,10.60
2018-05-12T00:08:02.557Z,10.60
2018-05-12T00:11:08.759Z,10.60
2018-05-12T00:14:13.940Z,10.60
2018-05-12T00:17:20.265Z,10.50
2018-05-12T00:20:27.028Z,10.40
2018-05-12T00:23:32.962Z,10.30
2018-05-12T00:26:39.250Z,10.20
2018-05-12T00:29:46.217Z,10.20
2018-05-12T00:32:52.213Z,10.40
2018-05-12T00:36:07.736Z,10.50
2018-05-12T00:39:13.679Z,10.60
2018-05-12T00:42:19.692Z,10.40
2018-05-12T00:45:25.208Z,10.40
2018-05-12T00:48:32.399Z,10.30
2018-05-12T00:51:37.654Z,10.20
2018-05-12T00:54:44.076Z,10.10
2018-05-12T00:57:51.477Z,10.30
2018-05-12T01:00:57.735Z,10.20
2018-05-12T01:04:03.040Z,10.20
2018-05-12T01:07:09.328Z,10.00
2018-05-12T01:10:15.556Z,9.90
2018-05-12T01:13:26.846Z,9.90
2018-05-12T01:16:33.050Z,9.90
2018-05-12T01:19:39.288Z,10.00
2018-05-12T01:22:46.695Z,10.00
2018-05-12T01:25:52.810Z,9.90
2018-05-12T01:28:58.843Z,9.80
2018-05-12T01:32:05.081Z,9.80
2018-05-12T01:35:11.148Z,9.70
2018-05-12T01:38:17.710Z,9.70
2018-05-12T01:41:23.705Z,9.60
2018-05-12T01:44:31.200Z,9.50
2018-05-12T01:47:37.358Z,9.60
2018-05-12T01:50:43.362Z,9.50
2018-05-12T01:53:51.177Z,9.40
2018-05-12T01:56:56.506Z,9.30
2018-05-12T02:00:02.960Z,9.10
2018-05-12T02:03:08.597Z,9.10
2018-05-12T02:06:14.997Z,9.00
2018-05-12T02:09:22.164Z,8.90
2018-05-12T02:12:28.414Z,8.90
2018-05-12T02:15:34.499Z,8.80
2018-05-12T02:18:40.620Z,8.90
2018-05-12T02:21:47.144Z,8.80
2018-05-12T02:24:52.875Z,8.80
2018-05-12T02:27:58.306Z,8.90
2018-05-12T02:31:04.820Z,8.80
2018-05-12T02:34:11.248Z,8.80
2018-05-12T02:37:17.402Z,8.60
2018-05-12T02:40:23.401Z,8.50
2018-05-12T02:43:28.884Z,8.50
2018-05-12T02:46:35.094Z,8.60
2018-05-12T02:49:41.366Z,8.60
2018-05-12T02:52:47.705Z,8.20
2018-05-12T02:55:53.997Z,8.20
2018-05-12T02:59:00.198Z,8.10
2018-05-12T03:02:06.356Z,8.00
2018-05-12T03:05:12.506Z,8.00
2018-05-12T03:08:18.678Z,8.00
2018-05-12T03:11:25.302Z,8.00
2018-05-12T03:14:32.174Z,8.00
2018-05-12T03:17:38.108Z,8.00
2018-05-12T03:20:44.308Z,7.90
2018-05-12T03:23:50.237Z,8.20
2018-05-12T03:26:56.046Z,8.20
2018-05-12T03:30:02.976Z,8.20
2018-05-12T03:33:08.615Z,8.20
2018-05-12T03:36:14.935Z,8.20
2018-05-12T03:39:21.405Z,8.20
2018-05-12T03:42:27.610Z,8.20
2018-05-12T03:45:33.707Z,8.10
2018-05-12T03:48:39.236Z,8.10
2018-05-12T03:51:44.510Z,8.10
2018-05-12T03:54:50.210Z,8.10
2018-05-12T03:57:57.597Z,8.10
2018-05-12T04:01:04.425Z,7.90
2018-05-12T04:04:10.684Z,7.90
2018-05-12T04:07:29.271Z,8.00
2018-05-12T04:10:41.014Z,7.90
2018-05-12T04:13:47.640Z,8.20
2018-05-12T04:16:53.088Z,8.30
2018-05-12T04:19:59.324Z,8.30
2018-05-12T04:23:04.619Z,8.30
2018-05-12T04:26:09.998Z,8.40
2018-05-12T04:29:16.363Z,8.70
2018-05-12T04:32:22.533Z,8.70
2018-05-12T04:35:28.779Z,9.00
2018-05-12T04:38:34.871Z,8.90
2018-05-12T04:41:40.941Z,9.00
2018-05-12T04:44:46.912Z,9.10
2018-05-12T04:47:53.193Z,9.30
2018-05-12T04:50:58.427Z,9.30
2018-05-12T04:54:04.419Z,9.70
2018-05-12T04:57:10.514Z,10.10
2018-05-12T05:00:16.815Z,10.00
2018-05-12T05:03:24.068Z,10.20
2018-05-12T05:06:30.321Z,10.40
2018-05-12T05:09:35.717Z,10.70
2018-05-12T05:12:42.329Z,10.80
2018-05-12T05:15:48.457Z,11.10
2018-05-12T05:18:54.589Z,11.30
2018-05-12T05:22:00.994Z,11.30
2018-05-12T05:25:08.261Z,11.60
2018-05-12T05:30:57.248Z,11.60
2018-05-12T05:34:03.442Z,11.80
2018-05-12T05:37:09.732Z,12.10
2018-05-12T05:40:15.722Z,12.30
2018-05-12T05:43:21.955Z,12.50
2018-05-12T05:46:28.092Z,12.40
2018-05-12T05:49:34.228Z,12.50
2018-05-12T05:52:40.532Z,12.60
2018-05-12T05:55:45.817Z,12.70
2018-05-12T05:58:51.862Z,12.90
2018-05-12T06:01:57.398Z,13.10
2018-05-12T06:05:03.278Z,13.60
2018-05-12T06:08:09.408Z,13.60
2018-05-12T06:11:15.532Z,14.20
2018-05-12T06:14:21.731Z,14.40
2018-05-12T06:17:28.102Z,14.40
2018-05-12T06:20:34.206Z,14.80
2018-05-12T06:23:41.268Z,15.20
2018-05-12T06:26:50.435Z,15.80
2018-05-12T06:29:56.933Z,16.70
2018-05-12T06:33:02.072Z,16.70
2018-05-12T06:36:08.042Z,17.10
2018-05-12T06:39:14.231Z,17.60
2018-05-12T06:42:20.258Z,17.90
2018-05-12T06:45:27.049Z,17.90
2018-05-12T06:48:33.517Z,18.30
2018-05-12T06:51:39.104Z,18.40
2018-05-12T06:54:46.391Z,18.80
2018-05-12T06:57:52.818Z,19.00
2018-05-12T07:00:59.655Z,18.90
2018-05-12T07:04:05.892Z,19.10
2018-05-12T07:07:12.220Z,18.80
2018-05-12T07:10:17.953Z,18.70
2018-05-12T07:13:23.937Z,18.40
2018-05-12T07:16:30.203Z,18.80
2018-05-12T07:19:36.488Z,19.00
2018-05-12T07:22:42.780Z,19.00
2018-05-12T07:25:48.927Z,19.50
2018-05-12T07:28:56.146Z,19.90
2018-05-12T07:32:02.475Z,20.60
2018-05-12T07:35:09.498Z,20.50
2018-05-12T07:38:15.581Z,20.90
2018-05-12T07:41:21.702Z,21.40
2018-05-12T07:44:27.916Z,21.60
2018-05-12T07:47:33.867Z,21.60
2018-05-12T07:50:39.719Z,22.00
2018-05-12T07:53:46.021Z,22.10
2018-05-12T07:56:53.111Z,21.80
2018-05-12T07:59:59.146Z,21.80
2018-05-12T08:03:05.108Z,21.70
2018-05-12T08:06:11.203Z,22.00
2018-05-12T08:09:17.230Z,21.90
2018-05-12T08:12:23.409Z,21.50
2018-05-12T08:15:29.534Z,21.60
2018-05-12T08:18:35.460Z,22.30
2018-05-12T08:21:41.362Z,22.30
2018-05-12T08:24:48.478Z,22.50
2018-05-12T08:27:55.492Z,22.70
2018-05-12T08:31:01.352Z,22.90
2018-05-12T08:34:07.381Z,22.70
2018-05-12T08:37:13.381Z,22.90
2018-05-12T08:40:19.487Z,23.80
2018-05-12T08:43:25.408Z,24.60
2018-05-12T08:46:31.295Z,24.90
2018-05-12T08:49:37.430Z,25.10
2018-05-12T08:52:43.238Z,25.30
2018-05-12T08:55:49.523Z,25.30
2018-05-12T08:58:57.396Z,25.30
2018-05-12T09:02:03.726Z,26.20
2018-05-12T09:05:09.686Z,26.00
2018-05-12T09:08:15.677Z,25.90
2018-05-12T09:11:21.645Z,26.10
2018-05-12T09:14:27.730Z,26.20
2018-05-12T09:17:33.788Z,26.20
2018-05-12T09:20:40.323Z,27.30
2018-05-12T09:23:46.591Z,27.30
2018-05-12T09:26:52.940Z,27.10
2018-05-12T09:30:00.101Z,27.50
2018-05-12T09:33:06.143Z,26.90
2018-05-12T09:36:12.213Z,27.20
2018-05-12T09:39:18.444Z,27.30
2018-05-12T09:42:24.875Z,27.20
2018-05-12T09:45:31.283Z,26.90
2018-05-12T09:48:38.009Z,26.80
2018-05-12T09:51:44.027Z,26.90
2018-05-12T09:54:50.158Z,27.10
2018-05-12T09:57:57.469Z,27.50
2018-05-12T10:01:04.307Z,27.60
2018-05-12T10:04:10.209Z,27.60
2018-05-12T10:07:16.595Z,27.70
2018-05-12T10:10:22.581Z,27.70
2018-05-12T10:13:29.589Z,28.50
2018-05-12T10:16:35.449Z,28.10
2018-05-12T10:19:41.510Z,27.30
2018-05-12T10:22:47.513Z,26.60
2018-05-12T10:25:53.361Z,26.10
2018-05-12T10:28:59.619Z,26.90
2018-05-12T10:32:05.745Z,27.50
2018-05-12T10:35:12.820Z,27.90
2018-05-12T10:38:18.654Z,27.90
2018-05-12T10:41:25.009Z,28.80
2018-05-12T10:44:31.069Z,29.70
2018-05-12T10:47:37.277Z,29.70
2018-05-12T10:50:43.317Z,28.70
2018-05-12T10:53:50.046Z,29.20
2018-05-12T10:56:57.341Z,29.20
2018-05-12T11:00:03.378Z,29.60
2018-05-12T11:03:10.380Z,28.70
2018-05-12T11:06:16.594Z,27.80
2018-05-12T11:09:23.655Z,27.90
2018-05-12T11:12:30.825Z,28.40
2018-05-12T11:15:36.371Z,28.30
2018-05-12T11:18:42.696Z,28.20
2018-05-12T11:21:49.640Z,28.20
2018-05-12T11:24:55.562Z,28.60
2018-05-12T11:28:02.471Z,27.80
2018-05-12T11:31:08.862Z,27.70
2018-05-12T11:34:15.889Z,28.90
2018-05-12T11:37:22.765Z,28.90
2018-05-12T11:40:28.880Z,30.10
2018-05-12T11:43:35.740Z,30.10
2018-05-12T11:46:43.244Z,29.70
2018-05-12T11:49:50.506Z,30.00
2018-05-12T11:52:56.656Z,30.50
2018-05-12T11:56:04.961Z,28.70
2018-05-12T11:59:15.649Z,27.10
2018-05-12T12:02:21.514Z,26.70
2018-05-12T12:05:29.769Z,28.30
2018-05-12T12:08:36.948Z,29.20
2018-05-12T12:11:43.990Z,30.80
2018-05-12T12:14:51.005Z,30.80
2018-05-12T12:17:58.149Z,31.10
2018-05-12T12:21:07.711Z,31.90
2018-05-12T12:24:14.862Z,32.20
2018-05-12T12:27:20.735Z,32.10
2018-05-12T12:30:27.019Z,31.80
2018-05-12T12:33:34.001Z,32.80
2018-05-12T12:36:42.144Z,32.40
2018-05-12T12:39:48.291Z,32.40
2018-05-12T12:42:56.145Z,33.30
2018-05-12T12:46:03.154Z,33.20
2018-05-12T12:49:10.254Z,32.60
2018-05-12T12:52:16.623Z,32.60
2018-05-12T12:55:24.718Z,31.80
2018-05-12T12:58:30.751Z,31.60
2018-05-12T13:01:36.640Z,31.90
2018-05-12T13:04:43.753Z,32.00
2018-05-12T13:07:49.960Z,30.70
2018-05-12T13:10:56.388Z,28.90
2018-05-12T13:14:04.280Z,28.90
2018-05-12T13:17:10.406Z,28.00
2018-05-12T13:20:18.964Z,29.10
2018-05-12T13:23:26.735Z,28.90
2018-05-12T13:26:33.373Z,28.60
2018-05-12T13:29:40.214Z,28.50
2018-05-12T13:32:45.934Z,28.50
2018-05-12T13:35:52.033Z,29.60
2018-05-12T13:38:57.965Z,28.40
2018-05-12T13:42:04.057Z,28.40
2018-05-12T13:45:10.183Z,27.60
2018-05-12T13:48:17.380Z,28.00
2018-05-12T13:51:24.526Z,29.40
2018-05-12T13:54:31.120Z,31.10
2018-05-12T13:57:37.542Z,31.00
2018-05-12T14:00:43.485Z,30.20
2018-05-12T14:03:49.989Z,30.10
2018-05-12T14:06:56.438Z,30.00
2018-05-12T14:10:02.714Z,29.50
2018-05-12T14:13:09.464Z,30.30
2018-05-12T14:16:16.611Z,30.40
2018-05-12T14:19:22.712Z,29.70
2018-05-12T14:22:28.504Z,29.80
2018-05-12T14:25:35.484Z,31.40
2018-05-12T14:28:41.412Z,30.60
2018-05-12T14:31:48.444Z,28.90
2018-05-12T14:34:54.623Z,28.90
2018-05-12T14:38:00.486Z,28.10
2018-05-12T14:41:05.845Z,27.90
2018-05-12T14:44:14.008Z,28.60
2018-05-12T14:47:22.878Z,29.30
2018-05-12T14:50:30.061Z,30.20
2018-05-12T14:53:36.727Z,30.20
2018-05-12T14:56:45.481Z,30.20
2018-05-12T14:59:51.717Z,31.00
2018-05-12T15:03:00.480Z,32.00
2018-05-12T15:06:07.250Z,32.00
2018-05-12T15:09:14.389Z,32.10
2018-05-12T15:12:20.729Z,31.70
2018-05-12T15:15:27.500Z,31.50
2018-05-12T15:18:32.879Z,31.10
2018-05-12T15:21:40.766Z,31.10
2018-05-12T15:24:47.467Z,31.40
2018-05-12T15:27:53.889Z,31.50
2018-05-12T15:31:01.189Z,32.70
2018-05-12T15:34:08.936Z,32.60
2018-05-12T15:37:14.829Z,32.40
2018-05-12T15:40:25.864Z,32.10
2018-05-12T15:43:33.051Z,31.40
2018-05-12T15:46:41.237Z,30.60
2018-05-12T15:49:48.737Z,29.80
2018-05-12T15:53:01.671Z,29.30
2018-05-12T15:56:13.666Z,29.00
2018-05-12T15:59:21.491Z,29.90
2018-05-12T16:02:27.515Z,29.90
2018-05-12T16:05:34.390Z,29.40
2018-05-12T16:08:40.996Z,28.60
2018-05-12T16:11:47.788Z,29.00
2018-05-12T16:14:54.755Z,29.00
2018-05-12T16:18:00.772Z,29.30
2018-05-12T16:21:06.702Z,30.00
2018-05-12T16:24:13.591Z,29.90
2018-05-12T16:27:19.475Z,30.00
2018-05-12T16:30:25.455Z,29.20
2018-05-12T16:33:31.467Z,28.10
2018-05-12T16:36:37.730Z,26.50
2018-05-12T16:39:43.452Z,26.50
2018-05-12T16:42:57.335Z,25.50
2018-05-12T16:46:04.480Z,25.40
2018-05-12T16:49:11.307Z,25.00
2018-05-12T16:52:17.268Z,24.90
2018-05-12T16:55:22.990Z,24.80
2018-05-12T16:58:29.803Z,24.20
2018-05-12T17:01:35.652Z,23.80
2018-05-12T17:04:41.629Z,23.80
2018-05-12T17:07:47.808Z,23.60
2018-05-12T17:10:53.838Z,23.40
2018-05-12T17:13:59.915Z,23.40
2018-05-12T17:17:06.921Z,23.30
2018-05-12T17:20:12.666Z,23.20
2018-05-12T17:23:18.920Z,23.00
2018-05-12T17:26:25.144Z,22.80
2018-05-12T17:29:31.009Z,22.70
2018-05-12T17:32:37.184Z,22.50
2018-05-12T17:35:43.326Z,22.40
2018-05-12T17:38:50.318Z,22.40
2018-05-12T17:41:57.457Z,22.10
2018-05-12T17:45:03.696Z,22.10
2018-05-12T17:48:11.387Z,22.00
2018-05-12T17:51:18.321Z,21.90
2018-05-12T17:54:24.466Z,21.80
2018-05-12T17:57:31.474Z,21.70
2018-05-12T18:00:38.234Z,21.60
2018-05-12T18:03:44.499Z,21.50
2018-05-12T18:06:51.476Z,21.20
2018-05-12T18:09:57.749Z,21.10
2018-05-12T18:13:04.551Z,21.10
2018-05-12T18:16:10.469Z,20.90
2018-05-12T18:19:16.914Z,20.80
2018-05-12T18:22:25.260Z,20.60
2018-05-12T18:25:31.943Z,20.50
2018-05-12T18:28:39.224Z,20.50
2018-05-12T18:31:45.832Z,20.20
2018-05-12T18:34:51.864Z,20.20
2018-05-12T18:37:57.931Z,20.10
2018-05-12T18:41:03.936Z,20.00
2018-05-12T18:44:10.179Z,19.90
2018-05-12T18:47:16.613Z,19.60
2018-05-12T18:50:25.926Z,19.40
2018-05-12T18:53:31.983Z,19.10
2018-05-12T18:56:37.961Z,18.90
2018-05-12T18:59:43.958Z,18.70
2018-05-12T19:02:50.018Z,18.60
2018-05-12T19:05:56.081Z,18.50
2018-05-12T19:09:01.979Z,18.30
2018-05-12T19:12:08.395Z,18.10
2018-05-12T19:15:14.728Z,17.90
2018-05-12T19:18:20.708Z,17.80
2018-05-12T19:21:26.943Z,17.70
2018-05-12T19:24:33.111Z,17.60
2018-05-12T19:27:39.168Z,17.40
2018-05-12T19:30:45.637Z,17.40
2018-05-12T19:33:52.513Z,17.20
2018-05-12T19:36:59.744Z,17.10
2018-05-12T19:40:05.663Z,17.10
2018-05-12T19:43:15.270Z,16.90
2018-05-12T19:46:21.207Z,16.90
2018-05-12T19:49:27.570Z,16.90
2018-05-12T19:52:33.632Z,16.90
2018-05-12T19:55:40.117Z,16.70
2018-05-12T19:58:46.800Z,16.60
2018-05-12T20:01:54.484Z,16.50
2018-05-12T20:05:01.471Z,16.40
2018-05-12T20:08:12.450Z,16.30
2018-05-12T20:11:18.465Z,16.30
2018-05-12T20:14:24.446Z,16.20
2018-05-12T20:17:37.534Z,15.90
2018-05-12T20:20:45.260Z,15.80
2018-05-12T20:23:54.150Z,15.80
2018-05-12T20:26:59.953Z,15.80
2018-05-12T20:30:07.089Z,15.60
2018-05-12T20:33:14.176Z,15.60
2018-05-12T20:36:20.968Z,15.50
2018-05-12T20:39:27.050Z,15.50
2018-05-12T20:42:33.010Z,15.40
2018-05-12T20:45:38.936Z,15.20
2018-05-12T20:48:45.454Z,15.20
2018-05-12T20:51:52.516Z,15.00
2018-05-12T20:54:59.323Z,15.00
2018-05-12T20:58:05.636Z,14.80
2018-05-12T21:01:11.468Z,14.70
2018-05-12T21:04:17.432Z,14.70
2018-05-12T21:07:23.517Z,14.50
2018-05-12T21:10:30.351Z,14.30
2018-05-12T21:13:36.359Z,14.30
2018-05-12T21:16:41.515Z,14.30
2018-05-12T21:19:47.818Z,14.10
2018-05-12T21:22:53.877Z,13.90
2018-05-12T21:25:59.864Z,13.70
2018-05-12T21:29:06.606Z,13.50
2018-05-12T21:32:15.433Z,13.40
2018-05-12T21:35:41.200Z,13.20
2018-05-12T21:38:47.527Z,13.20
2018-05-12T21:41:53.427Z,13.20
2018-05-12T21:45:01.210Z,13.20
2018-05-12T21:48:08.222Z,13.20
2018-05-12T21:51:14.979Z,13.20
2018-05-12T21:54:20.873Z,13.20
2018-05-12T21:57:27.571Z,13.20
2018-05-12T22:00:33.690Z,13.20
2018-05-12T22:03:39.738Z,13.20
2018-05-12T22:06:45.811Z,13.20
2018-05-12T22:09:52.208Z,13.20
2018-05-12T22:12:58.333Z,13.20
2018-05-12T22:16:04.456Z,13.20
2018-05-12T22:19:10.416Z,13.20
2018-05-12T22:22:16.514Z,13.20
2018-05-12T22:25:22.869Z,13.20
2018-05-12T22:28:29.687Z,13.20
2018-05-12T22:31:38.703Z,13.20
2018-05-12T22:34:44.663Z,13.30
2018-05-12T22:37:50.473Z,13.40
2018-05-12T22:40:56.402Z,13.50
2018-05-12T22:44:02.579Z,13.50
2018-05-12T22:47:08.557Z,13.40
2018-05-12T22:50:14.446Z,13.30
2018-05-12T22:53:20.624Z,13.30
2018-05-12T22:56:26.979Z,13.30
2018-05-12T22:59:34.523Z,13.20
2018-05-12T23:02:40.635Z,13.20
2018-05-12T23:05:46.629Z,13.10
2018-05-12T23:08:52.584Z,13.00
2018-05-12T23:11:58.592Z,12.80
2018-05-12T23:15:04.839Z,12.80
2018-05-12T23:18:10.963Z,12.70
2018-05-12T23:21:17.364Z,12.70
2018-05-12T23:24:23.639Z,12.50
2018-05-12T23:27:29.804Z,12.50
2018-05-12T23:30:36.040Z,12.50
2018-05-12T23:33:41.905Z,12.40
2018-05-12T23:36:47.911Z,12.40
2018-05-12T23:39:54.924Z,12.40
2018-05-12T23:43:01.073Z,12.40
2018-05-12T23:46:07.256Z,12.50
2018-05-12T23:49:13.432Z,12.50
2018-05-12T23:52:19.361Z,12.50
2018-05-12T23:55:25.213Z,12.50
2018-05-12T23:58:31.855Z,12.60
